sensor_id;sensor_type;location;lat;lon;timestamp;pressure;altitude;pressure_sealevel;temperature;humidity
12475;BME280;6302;42.624;23.334;2023-02-17T00:01:18;94152.19;;;3.03;87.43
12475;BME280;6302;42.624;23.334;2023-02-17T00:03:45;94146.63;;;3.05;86.88
12475;BME280;6302;42.624;23.334;2023-02-17T00:06:16;94150.44;;;3.07;87.38
12475;BME280;6302;42.624;23.334;2023-02-17T00:08:44;94147.84;;;3.07;87.28
12475;BME280;6302;42.624;23.334;2023-02-17T00:11:11;94152.63;;;3.05;87.83
12475;BME280;6302;42.624;23.334;2023-02-17T00:13:38;94145.53;;;3.06;88.08
12475;BME280;6302;42.624;23.334;2023-02-17T00:16:07;94150.66;;;3.02;88.94
12475;BME280;6302;42.624;23.334;2023-02-17T00:18:34;94153.72;;;3.04;89.95
12475;BME280;6302;42.624;23.334;2023-02-17T00:21:10;94147.81;;;2.95;90.54
12475;BME280;6302;42.624;23.334;2023-02-17T00:23:39;94145.19;;;2.95;91.35
12475;BME280;6302;42.624;23.334;2023-02-17T00:26:06;94143.84;;;2.89;92.30
12475;BME280;6302;42.624;23.334;2023-02-17T00:28:33;94136.66;;;2.86;92.58
12475;BME280;6302;42.624;23.334;2023-02-17T00:31:05;94133.38;;;2.89;92.53
12475;BME280;6302;42.624;23.334;2023-02-17T00:33:32;94144.81;;;2.85;93.30
12475;BME280;6302;42.624;23.334;2023-02-17T00:36:02;94144.72;;;2.81;93.44
12475;BME280;6302;42.624;23.334;2023-02-17T00:38:29;94133.03;;;2.79;93.92
12475;BME280;6302;42.624;23.334;2023-02-17T00:40:57;94125.03;;;2.75;94.35
12475;BME280;6302;42.624;23.334;2023-02-17T00:43:24;94128.28;;;2.72;94.69
12475;BME280;6302;42.624;23.334;2023-02-17T00:45:51;94113.56;;;2.68;95.81
12475;BME280;6302;42.624;23.334;2023-02-17T00:48:17;94110.50;;;2.66;96.10
12475;BME280;6302;42.624;23.334;2023-02-17T00:50:44;94107.44;;;2.63;96.52
12475;BME280;6302;42.624;23.334;2023-02-17T00:53:11;94102.31;;;2.67;96.36
12475;BME280;6302;42.624;23.334;2023-02-17T00:55:38;94101.88;;;2.65;96.64
12475;BME280;6302;42.624;23.334;2023-02-17T00:58:06;94101.69;;;2.70;96.76
12475;BME280;6302;42.624;23.334;2023-02-17T01:00:33;94101.59;;;2.67;97.02
12475;BME280;6302;42.624;23.334;2023-02-17T01:03:00;94108.22;;;2.64;97.75
12475;BME280;6302;42.624;23.334;2023-02-17T01:05:27;94113.47;;;2.64;98.33
12475;BME280;6302;42.624;23.334;2023-02-17T01:07:54;94111.91;;;2.63;98.53
12475;BME280;6302;42.624;23.334;2023-02-17T01:10:21;94113.13;;;2.66;98.72
12475;BME280;6302;42.624;23.334;2023-02-17T01:12:48;94101.31;;;2.59;99.16
12475;BME280;6302;42.624;23.334;2023-02-17T01:15:16;94112.69;;;2.63;99.68
12475;BME280;6302;42.624;23.334;2023-02-17T01:17:43;94105.13;;;2.62;99.69
12475;BME280;6302;42.624;23.334;2023-02-17T01:20:10;94098.97;;;2.67;99.64
12475;BME280;6302;42.624;23.334;2023-02-17T01:22:37;94108.47;;;2.71;99.27
12475;BME280;6302;42.624;23.334;2023-02-17T01:25:05;94095.25;;;2.68;98.98
12475;BME280;6302;42.624;23.334;2023-02-17T01:27:32;94093.41;;;2.68;98.61
12475;BME280;6302;42.624;23.334;2023-02-17T01:30:00;94102.47;;;2.71;98.79
12475;BME280;6302;42.624;23.334;2023-02-17T01:32:28;94087.34;;;2.88;97.21
12475;BME280;6302;42.624;23.334;2023-02-17T01:34:55;94098.34;;;2.82;97.37
12475;BME280;6302;42.624;23.334;2023-02-17T01:37:22;94091.44;;;2.77;98.07
12475;BME280;6302;42.624;23.334;2023-02-17T01:39:48;94087.00;;;2.78;98.23
12475;BME280;6302;42.624;23.334;2023-02-17T01:42:16;94074.97;;;2.77;98.75
12475;BME280;6302;42.624;23.334;2023-02-17T01:47:53;94074.63;;;2.66;100.00
12475;BME280;6302;42.624;23.334;2023-02-17T01:50:24;94077.69;;;2.68;100.00
12475;BME280;6302;42.624;23.334;2023-02-17T01:52:54;94078.66;;;2.63;100.00
12475;BME280;6302;42.624;23.334;2023-02-17T01:55:23;94082.50;;;2.66;100.00
12475;BME280;6302;42.624;23.334;2023-02-17T01:57:53;94086.00;;;2.82;99.50
12475;BME280;6302;42.624;23.334;2023-02-17T02:00:22;94076.94;;;2.80;98.72
12475;BME280;6302;42.624;23.334;2023-02-17T02:02:52;94087.84;;;2.82;99.10
12475;BME280;6302;42.624;23.334;2023-02-17T02:05:20;94086.84;;;2.74;99.69
12475;BME280;6302;42.624;23.334;2023-02-17T02:07:47;94087.41;;;2.68;100.00
12475;BME280;6302;42.624;23.334;2023-02-17T02:10:16;94079.44;;;2.64;100.00
12475;BME280;6302;42.624;23.334;2023-02-17T02:12:43;94080.50;;;2.63;100.00
12475;BME280;6302;42.624;23.334;2023-02-17T02:15:12;94078.97;;;2.62;100.00
12475;BME280;6302;42.624;23.334;2023-02-17T02:17:47;94077.75;;;2.59;100.00
12475;BME280;6302;42.624;23.334;2023-02-17T02:26:48;94086.97;;;2.45;100.00
12475;BME280;6302;42.624;23.334;2023-02-17T02:29:48;94085.28;;;2.49;100.00
12475;BME280;6302;42.624;23.334;2023-02-17T02:32:48;94087.31;;;2.43;100.00
12475;BME280;6302;42.624;23.334;2023-02-17T02:35:24;94025.09;;;1.95;100.00
12475;BME280;6302;42.624;23.334;2023-02-17T02:37:59;94086.25;;;2.24;100.00
12475;BME280;6302;42.624;23.334;2023-02-17T02:40:31;94080.56;;;2.22;100.00
12475;BME280;6302;42.624;23.334;2023-02-17T02:43:00;94074.44;;;2.18;100.00
12475;BME280;6302;42.624;23.334;2023-02-17T02:45:28;94077.72;;;2.15;100.00
12475;BME280;6302;42.624;23.334;2023-02-17T02:47:57;94082.59;;;2.16;100.00
12475;BME280;6302;42.624;23.334;2023-02-17T02:50:44;94073.16;;;2.03;100.00
12475;BME280;6302;42.624;23.334;2023-02-17T02:53:41;94066.91;;;1.95;100.00
12475;BME280;6302;42.624;23.334;2023-02-17T02:56:16;94061.31;;;1.85;100.00
12475;BME280;6302;42.624;23.334;2023-02-17T02:58:51;94072.56;;;1.97;100.00
12475;BME280;6302;42.624;23.334;2023-02-17T03:01:28;94087.44;;;2.06;100.00
12475;BME280;6302;42.624;23.334;2023-02-17T03:04:07;94090.25;;;2.01;100.00
12475;BME280;6302;42.624;23.334;2023-02-17T03:06:42;94074.13;;;1.98;100.00
12475;BME280;6302;42.624;23.334;2023-02-17T03:09:13;94087.63;;;2.01;100.00
12475;BME280;6302;42.624;23.334;2023-02-17T03:11:42;94071.41;;;1.95;100.00
12475;BME280;6302;42.624;23.334;2023-02-17T03:14:11;94086.41;;;1.98;100.00
12475;BME280;6302;42.624;23.334;2023-02-17T03:16:39;94072.56;;;1.97;100.00
12475;BME280;6302;42.624;23.334;2023-02-17T03:19:09;94086.22;;;2.03;100.00
12475;BME280;6302;42.624;23.334;2023-02-17T03:21:38;94080.41;;;1.97;100.00
12475;BME280;6302;42.624;23.334;2023-02-17T03:24:07;94074.56;;;2.01;100.00
12475;BME280;6302;42.624;23.334;2023-02-17T03:26:34;94075.78;;;2.03;100.00
12475;BME280;6302;42.624;23.334;2023-02-17T03:29:01;94079.16;;;2.04;100.00
12475;BME280;6302;42.624;23.334;2023-02-17T03:31:28;94077.50;;;1.99;100.00
12475;BME280;6302;42.624;23.334;2023-02-17T03:33:55;94069.66;;;1.99;100.00
12475;BME280;6302;42.624;23.334;2023-02-17T03:36:23;94067.81;;;2.00;100.00
12475;BME280;6302;42.624;23.334;2023-02-17T03:38:50;94063.09;;;1.93;100.00
12475;BME280;6302;42.624;23.334;2023-02-17T03:41:17;94077.31;;;2.04;100.00
12475;BME280;6302;42.624;23.334;2023-02-17T03:43:44;94083.31;;;2.05;100.00
12475;BME280;6302;42.624;23.334;2023-02-17T03:46:11;94076.09;;;2.02;100.00
12475;BME280;6302;42.624;23.334;2023-02-17T03:48:38;94058.19;;;1.91;100.00
12475;BME280;6302;42.624;23.334;2023-02-17T03:51:12;94058.63;;;1.93;100.00
12475;BME280;6302;42.624;23.334;2023-02-17T03:53:42;94074.88;;;1.99;100.00
12475;BME280;6302;42.624;23.334;2023-02-17T03:56:10;94080.22;;;2.03;100.00
12475;BME280;6302;42.624;23.334;2023-02-17T03:58:37;94069.97;;;1.97;100.00
12475;BME280;6302;42.624;23.334;2023-02-17T04:01:04;94070.63;;;1.94;100.00
12475;BME280;6302;42.624;23.334;2023-02-17T04:03:32;94073.69;;;1.96;100.00
12475;BME280;6302;42.624;23.334;2023-02-17T04:05:59;94077.38;;;1.95;100.00
12475;BME280;6302;42.624;23.334;2023-02-17T04:08:26;94074.44;;;1.97;100.00
12475;BME280;6302;42.624;23.334;2023-02-17T04:10:57;94087.34;;;2.02;100.00
12475;BME280;6302;42.624;23.334;2023-02-17T04:13:24;94077.19;;;2.01;100.00
12475;BME280;6302;42.624;23.334;2023-02-17T04:15:52;94065.66;;;2.02;100.00
12475;BME280;6302;42.624;23.334;2023-02-17T04:18:19;94086.81;;;2.09;100.00
12475;BME280;6302;42.624;23.334;2023-02-17T04:20:48;94076.03;;;2.10;100.00
12475;BME280;6302;42.624;23.334;2023-02-17T04:23:16;94084.63;;;2.11;100.00
12475;BME280;6302;42.624;23.334;2023-02-17T04:25:43;94078.00;;;2.13;100.00
12475;BME280;6302;42.624;23.334;2023-02-17T04:28:13;94075.09;;;2.15;100.00
12475;BME280;6302;42.624;23.334;2023-02-17T04:30:42;94060.03;;;2.12;100.00
12475;BME280;6302;42.624;23.334;2023-02-17T04:33:09;94078.44;;;2.15;100.00
12475;BME280;6302;42.624;23.334;2023-02-17T04:35:36;94078.25;;;2.20;100.00
12475;BME280;6302;42.624;23.334;2023-02-17T04:38:03;94083.63;;;2.24;100.00
12475;BME280;6302;42.624;23.334;2023-02-17T04:40:30;94081.66;;;2.21;100.00
12475;BME280;6302;42.624;23.334;2023-02-17T04:42:57;94073.78;;;2.21;100.00
12475;BME280;6302;42.624;23.334;2023-02-17T04:45:25;94070.56;;;2.24;100.00
12475;BME280;6302;42.624;23.334;2023-02-17T04:47:52;94080.44;;;2.39;100.00
12475;BME280;6302;42.624;23.334;2023-02-17T04:50:19;94076.66;;;2.28;100.00
12475;BME280;6302;42.624;23.334;2023-02-17T04:52:45;94081.59;;;2.29;100.00
12475;BME280;6302;42.624;23.334;2023-02-17T04:55:12;94091.28;;;2.29;100.00
12475;BME280;6302;42.624;23.334;2023-02-17T04:57:39;94101.41;;;2.30;100.00
12475;BME280;6302;42.624;23.334;2023-02-17T05:00:07;94087.66;;;2.21;100.00
12475;BME280;6302;42.624;23.334;2023-02-17T05:02:35;94097.97;;;2.18;100.00
12475;BME280;6302;42.624;23.334;2023-02-17T05:05:02;94094.59;;;2.17;100.00
12475;BME280;6302;42.624;23.334;2023-02-17T05:07:29;94083.03;;;2.18;100.00
12475;BME280;6302;42.624;23.334;2023-02-17T05:09:56;94098.44;;;2.20;100.00
12475;BME280;6302;42.624;23.334;2023-02-17T05:12:23;94084.16;;;2.17;100.00
12475;BME280;6302;42.624;23.334;2023-02-17T05:14:49;94097.66;;;2.19;100.00
12475;BME280;6302;42.624;23.334;2023-02-17T05:17:16;94099.56;;;2.10;100.00
12475;BME280;6302;42.624;23.334;2023-02-17T05:19:44;94103.28;;;2.09;100.00
12475;BME280;6302;42.624;23.334;2023-02-17T05:22:11;94106.56;;;1.97;100.00
12475;BME280;6302;42.624;23.334;2023-02-17T05:24:38;94110.88;;;2.02;100.00
12475;BME280;6302;42.624;23.334;2023-02-17T05:27:05;94098.84;;;2.01;100.00
12475;BME280;6302;42.624;23.334;2023-02-17T05:29:32;94115.75;;;2.04;100.00
12475;BME280;6302;42.624;23.334;2023-02-17T05:31:58;94119.59;;;2.06;100.00
12475;BME280;6302;42.624;23.334;2023-02-17T05:34:25;94128.00;;;2.12;100.00
12475;BME280;6302;42.624;23.334;2023-02-17T05:36:53;94119.97;;;2.17;100.00
12475;BME280;6302;42.624;23.334;2023-02-17T05:39:20;94126.09;;;2.21;100.00
12475;BME280;6302;42.624;23.334;2023-02-17T05:41:47;94125.75;;;2.22;100.00
12475;BME280;6302;42.624;23.334;2023-02-17T05:44:14;94127.25;;;2.32;100.00
12475;BME280;6302;42.624;23.334;2023-02-17T05:46:40;94134.00;;;2.33;100.00
12475;BME280;6302;42.624;23.334;2023-02-17T05:49:07;94130.06;;;2.27;100.00
12475;BME280;6302;42.624;23.334;2023-02-17T05:51:34;94120.63;;;2.34;100.00
12475;BME280;6302;42.624;23.334;2023-02-17T05:54:02;94125.28;;;2.29;100.00
12475;BME280;6302;42.624;23.334;2023-02-17T05:56:29;94145.19;;;2.42;100.00
12475;BME280;6302;42.624;23.334;2023-02-17T05:58:56;94128.59;;;2.38;100.00
12475;BME280;6302;42.624;23.334;2023-02-17T06:01:24;94137.66;;;2.40;100.00
12475;BME280;6302;42.624;23.334;2023-02-17T06:03:51;94142.25;;;2.43;100.00
12475;BME280;6302;42.624;23.334;2023-02-17T06:06:18;94144.59;;;2.57;100.00
12475;BME280;6302;42.624;23.334;2023-02-17T06:08:45;94146.06;;;2.67;100.00
12475;BME280;6302;42.624;23.334;2023-02-17T06:11:13;94145.22;;;2.75;100.00
12475;BME280;6302;42.624;23.334;2023-02-17T06:13:40;94146.22;;;2.82;100.00
12475;BME280;6302;42.624;23.334;2023-02-17T06:16:07;94155.41;;;2.88;100.00
12475;BME280;6302;42.624;23.334;2023-02-17T06:18:34;94151.19;;;2.96;100.00
12475;BME280;6302;42.624;23.334;2023-02-17T06:21:01;94153.28;;;3.02;100.00
12475;BME280;6302;42.624;23.334;2023-02-17T06:23:28;94148.69;;;3.11;100.00
12475;BME280;6302;42.624;23.334;2023-02-17T06:25:54;94141.63;;;3.12;100.00
12475;BME280;6302;42.624;23.334;2023-02-17T06:28:23;94137.59;;;3.14;100.00
12475;BME280;6302;42.624;23.334;2023-02-17T06:30:50;94151.59;;;3.31;100.00
12475;BME280;6302;42.624;23.334;2023-02-17T06:33:16;94144.41;;;3.40;100.00
12475;BME280;6302;42.624;23.334;2023-02-17T06:35:47;94149.66;;;3.52;100.00
12475;BME280;6302;42.624;23.334;2023-02-17T06:38:13;94153.06;;;3.52;100.00
12475;BME280;6302;42.624;23.334;2023-02-17T06:40:40;94164.63;;;3.63;100.00
12475;BME280;6302;42.624;23.334;2023-02-17T06:43:07;94162.34;;;3.74;100.00
12475;BME280;6302;42.624;23.334;2023-02-17T06:45:35;94169.78;;;3.84;100.00
12475;BME280;6302;42.624;23.334;2023-02-17T06:48:02;94171.41;;;3.88;100.00
12475;BME280;6302;42.624;23.334;2023-02-17T06:50:29;94164.09;;;3.94;100.00
12475;BME280;6302;42.624;23.334;2023-02-17T06:52:56;94174.47;;;4.03;100.00
12475;BME280;6302;42.624;23.334;2023-02-17T06:55:23;94178.53;;;4.12;100.00
12475;BME280;6302;42.624;23.334;2023-02-17T06:57:49;94168.03;;;4.24;99.52
12475;BME280;6302;42.624;23.334;2023-02-17T07:00:17;94176.31;;;4.26;99.44
12475;BME280;6302;42.624;23.334;2023-02-17T07:02:45;94173.47;;;4.31;99.57
12475;BME280;6302;42.624;23.334;2023-02-17T07:05:13;94177.06;;;4.39;100.00
12475;BME280;6302;42.624;23.334;2023-02-17T07:07:40;94186.78;;;4.50;99.87
12475;BME280;6302;42.624;23.334;2023-02-17T07:10:07;94182.69;;;4.65;98.46
12475;BME280;6302;42.624;23.334;2023-02-17T07:12:34;94178.00;;;4.58;99.28
12475;BME280;6302;42.624;23.334;2023-02-17T07:15:01;94183.16;;;4.55;99.44
12475;BME280;6302;42.624;23.334;2023-02-17T07:17:28;94184.03;;;4.59;97.31
12475;BME280;6302;42.624;23.334;2023-02-17T07:19:56;94189.78;;;4.65;94.59
12475;BME280;6302;42.624;23.334;2023-02-17T07:22:23;94185.19;;;4.74;92.38
12475;BME280;6302;42.624;23.334;2023-02-17T07:24:51;94193.16;;;4.77;92.03
12475;BME280;6302;42.624;23.334;2023-02-17T07:27:18;94195.13;;;4.80;92.21
12475;BME280;6302;42.624;23.334;2023-02-17T07:29:44;94187.00;;;4.85;90.50
12475;BME280;6302;42.624;23.334;2023-02-17T07:32:11;94192.97;;;4.98;90.53
12475;BME280;6302;42.624;23.334;2023-02-17T07:34:38;94201.41;;;5.03;90.69
12475;BME280;6302;42.624;23.334;2023-02-17T07:37:06;94194.66;;;5.18;89.56
12475;BME280;6302;42.624;23.334;2023-02-17T07:39:33;94200.88;;;5.25;89.88
12475;BME280;6302;42.624;23.334;2023-02-17T07:42:00;94207.06;;;5.33;83.16
12475;BME280;6302;42.624;23.334;2023-02-17T07:44:29;94197.00;;;5.51;82.73
12475;BME280;6302;42.624;23.334;2023-02-17T07:46:56;94206.34;;;5.64;84.79
12475;BME280;6302;42.624;23.334;2023-02-17T07:49:23;94210.34;;;5.73;85.30
12475;BME280;6302;42.624;23.334;2023-02-17T07:51:50;94212.28;;;5.76;84.92
12475;BME280;6302;42.624;23.334;2023-02-17T07:54:18;94196.09;;;5.74;85.87
12475;BME280;6302;42.624;23.334;2023-02-17T07:56:44;94205.34;;;5.84;84.33
12475;BME280;6302;42.624;23.334;2023-02-17T07:59:12;94206.16;;;5.84;84.10
12475;BME280;6302;42.624;23.334;2023-02-17T08:01:41;94197.91;;;5.86;85.33
12475;BME280;6302;42.624;23.334;2023-02-17T08:04:08;94199.00;;;6.01;84.86
12475;BME280;6302;42.624;23.334;2023-02-17T08:06:36;94197.13;;;6.17;82.19
12475;BME280;6302;42.624;23.334;2023-02-17T08:09:04;94211.38;;;6.31;81.47
12475;BME280;6302;42.624;23.334;2023-02-17T08:11:49;94214.66;;;6.44;78.51
12475;BME280;6302;42.624;23.334;2023-02-17T08:14:33;94207.34;;;6.53;80.33
12475;BME280;6302;42.624;23.334;2023-02-17T08:17:01;94208.88;;;6.54;80.69
12475;BME280;6302;42.624;23.334;2023-02-17T08:19:28;94211.56;;;6.57;80.93
12475;BME280;6302;42.624;23.334;2023-02-17T08:21:55;94219.44;;;6.73;80.37
12475;BME280;6302;42.624;23.334;2023-02-17T08:24:22;94213.41;;;6.73;78.36
12475;BME280;6302;42.624;23.334;2023-02-17T08:26:50;94206.69;;;6.75;79.58
12475;BME280;6302;42.624;23.334;2023-02-17T08:29:17;94212.09;;;6.82;78.85
12475;BME280;6302;42.624;23.334;2023-02-17T08:31:45;94214.00;;;7.01;77.26
12475;BME280;6302;42.624;23.334;2023-02-17T08:34:16;94205.72;;;7.02;76.20
12475;BME280;6302;42.624;23.334;2023-02-17T08:36:43;94205.59;;;7.14;75.34
12475;BME280;6302;42.624;23.334;2023-02-17T08:39:12;94198.38;;;7.31;74.96
12475;BME280;6302;42.624;23.334;2023-02-17T08:41:41;94204.88;;;7.37;73.49
12475;BME280;6302;42.624;23.334;2023-02-17T08:44:11;94203.34;;;7.55;71.84
12475;BME280;6302;42.624;23.334;2023-02-17T08:46:38;94200.06;;;7.61;72.49
12475;BME280;6302;42.624;23.334;2023-02-17T08:49:06;94209.97;;;7.68;72.58
12475;BME280;6302;42.624;23.334;2023-02-17T08:51:33;94197.22;;;7.70;72.63
12475;BME280;6302;42.624;23.334;2023-02-17T08:54:00;94206.72;;;7.97;71.16
12475;BME280;6302;42.624;23.334;2023-02-17T08:56:28;94216.63;;;8.04;71.69
12475;BME280;6302;42.624;23.334;2023-02-17T08:58:55;94202.34;;;8.08;71.15
12475;BME280;6302;42.624;23.334;2023-02-17T09:01:23;94212.38;;;8.22;71.21
12475;BME280;6302;42.624;23.334;2023-02-17T09:03:52;94202.06;;;8.36;68.60
12475;BME280;6302;42.624;23.334;2023-02-17T09:06:20;94218.56;;;8.56;68.08
12475;BME280;6302;42.624;23.334;2023-02-17T09:08:47;94213.06;;;8.68;67.97
12475;BME280;6302;42.624;23.334;2023-02-17T09:11:15;94212.78;;;8.73;65.03
12475;BME280;6302;42.624;23.334;2023-02-17T09:13:44;94207.56;;;8.80;65.41
12475;BME280;6302;42.624;23.334;2023-02-17T09:16:11;94205.84;;;8.91;65.17
12475;BME280;6302;42.624;23.334;2023-02-17T09:18:39;94204.09;;;9.02;66.04
12475;BME280;6302;42.624;23.334;2023-02-17T09:21:07;94199.38;;;9.18;64.13
12475;BME280;6302;42.624;23.334;2023-02-17T09:23:35;94195.84;;;9.40;61.64
12475;BME280;6302;42.624;23.334;2023-02-17T09:26:03;94195.09;;;9.43;61.61
12475;BME280;6302;42.624;23.334;2023-02-17T09:28:32;94197.94;;;9.61;59.31
12475;BME280;6302;42.624;23.334;2023-02-17T09:31:07;94206.06;;;9.78;58.63
12475;BME280;6302;42.624;23.334;2023-02-17T09:33:34;94206.94;;;9.90;57.69
12475;BME280;6302;42.624;23.334;2023-02-17T09:36:02;94197.47;;;9.89;58.40
12475;BME280;6302;42.624;23.334;2023-02-17T09:38:29;94199.41;;;9.95;57.18
12475;BME280;6302;42.624;23.334;2023-02-17T09:40:59;94199.88;;;10.04;57.32
12475;BME280;6302;42.624;23.334;2023-02-17T09:43:30;94192.06;;;10.18;54.48
12475;BME280;6302;42.624;23.334;2023-02-17T09:46:01;94195.19;;;10.34;48.80
12475;BME280;6302;42.624;23.334;2023-02-17T09:48:32;94187.09;;;10.68;41.74
12475;BME280;6302;42.624;23.334;2023-02-17T09:51:03;94183.50;;;11.00;38.15
12475;BME280;6302;42.624;23.334;2023-02-17T09:53:36;94172.97;;;11.25;36.59
12475;BME280;6302;42.624;23.334;2023-02-17T09:56:08;94179.84;;;11.44;36.15
12475;BME280;6302;42.624;23.334;2023-02-17T09:58:39;94182.53;;;11.54;35.68
12475;BME280;6302;42.624;23.334;2023-02-17T10:01:09;94173.88;;;11.68;36.03
12475;BME280;6302;42.624;23.334;2023-02-17T10:03:39;94166.31;;;11.77;35.07
12475;BME280;6302;42.624;23.334;2023-02-17T10:06:13;94170.88;;;11.87;35.21
12475;BME280;6302;42.624;23.334;2023-02-17T10:08:46;94167.84;;;11.92;33.77
12475;BME280;6302;42.624;23.334;2023-02-17T10:11:22;94157.59;;;11.98;33.63
12475;BME280;6302;42.624;23.334;2023-02-17T10:13:54;94146.59;;;11.99;32.91
12475;BME280;6302;42.624;23.334;2023-02-17T10:16:31;94165.19;;;12.06;33.98
12475;BME280;6302;42.624;23.334;2023-02-17T10:19:03;94154.19;;;12.18;32.77
12475;BME280;6302;42.624;23.334;2023-02-17T10:21:38;94152.66;;;12.31;33.36
12475;BME280;6302;42.624;23.334;2023-02-17T10:24:06;94157.59;;;12.36;32.75
12475;BME280;6302;42.624;23.334;2023-02-17T10:26:47;94143.19;;;12.27;32.94
12475;BME280;6302;42.624;23.334;2023-02-17T10:29:26;94153.03;;;12.33;33.17
12475;BME280;6302;42.624;23.334;2023-02-17T10:32:12;94146.59;;;12.42;33.67
12475;BME280;6302;42.624;23.334;2023-02-17T10:34:47;94140.50;;;12.52;32.28
12475;BME280;6302;42.624;23.334;2023-02-17T10:37:23;94129.88;;;12.34;31.11
12475;BME280;6302;42.624;23.334;2023-02-17T10:39:55;94128.34;;;12.44;32.83
12475;BME280;6302;42.624;23.334;2023-02-17T10:42:25;94122.28;;;12.47;33.28
12475;BME280;6302;42.624;23.334;2023-02-17T10:44:58;94135.16;;;12.55;33.08
12475;BME280;6302;42.624;23.334;2023-02-17T10:47:26;94122.66;;;12.42;33.74
12475;BME280;6302;42.624;23.334;2023-02-17T10:49:54;94124.53;;;12.45;32.57
12475;BME280;6302;42.624;23.334;2023-02-17T10:52:26;94110.06;;;12.60;33.71
12475;BME280;6302;42.624;23.334;2023-02-17T10:55:00;94113.88;;;12.59;33.33
12475;BME280;6302;42.624;23.334;2023-02-17T10:57:34;94112.34;;;12.58;33.73
12475;BME280;6302;42.624;23.334;2023-02-17T11:00:03;94107.38;;;12.67;34.09
12475;BME280;6302;42.624;23.334;2023-02-17T11:02:34;94110.03;;;12.70;33.44
12475;BME280;6302;42.624;23.334;2023-02-17T11:05:03;94112.34;;;12.65;33.38
12475;BME280;6302;42.624;23.334;2023-02-17T11:07:33;94111.53;;;12.75;33.29
12475;BME280;6302;42.624;23.334;2023-02-17T11:10:03;94108.50;;;12.80;32.97
12475;BME280;6302;42.624;23.334;2023-02-17T11:12:33;94117.56;;;12.89;32.75
12475;BME280;6302;42.624;23.334;2023-02-17T11:15:14;94109.56;;;13.07;33.12
12475;BME280;6302;42.624;23.334;2023-02-17T11:17:42;94115.59;;;13.04;33.48
12475;BME280;6302;42.624;23.334;2023-02-17T11:20:29;94095.44;;;13.21;32.75
12475;BME280;6302;42.624;23.334;2023-02-17T11:23:07;94102.22;;;13.32;33.07
12475;BME280;6302;42.624;23.334;2023-02-17T11:25:55;94100.72;;;13.24;33.21
12475;BME280;6302;42.624;23.334;2023-02-17T11:28:23;94091.25;;;13.23;32.92
12475;BME280;6302;42.624;23.334;2023-02-17T11:30:51;94089.34;;;13.20;32.50
12475;BME280;6302;42.624;23.334;2023-02-17T11:33:21;94090.84;;;13.21;33.06
12475;BME280;6302;42.624;23.334;2023-02-17T11:35:50;94092.75;;;13.24;32.88
12475;BME280;6302;42.624;23.334;2023-02-17T11:38:21;94091.59;;;13.22;33.86
12475;BME280;6302;42.624;23.334;2023-02-17T11:40:55;94090.09;;;13.21;33.56
12475;BME280;6302;42.624;23.334;2023-02-17T11:43:22;94085.91;;;13.23;34.10
12475;BME280;6302;42.624;23.334;2023-02-17T11:45:57;94083.22;;;13.30;33.68
12475;BME280;6302;42.624;23.334;2023-02-17T11:51:38;94070.66;;;13.27;33.98
12475;BME280;6302;42.624;23.334;2023-02-17T11:54:18;94091.16;;;13.37;33.96
12475;BME280;6302;42.624;23.334;2023-02-17T11:56:58;94078.16;;;13.50;35.04
12475;BME280;6302;42.624;23.334;2023-02-17T11:59:40;94071.00;;;13.36;33.87
12475;BME280;6302;42.624;23.334;2023-02-17T12:02:16;94080.53;;;13.30;33.87
12475;BME280;6302;42.624;23.334;2023-02-17T12:05:06;94070.25;;;13.32;34.74
12475;BME280;6302;42.624;23.334;2023-02-17T12:07:43;94071.03;;;13.29;34.80
12475;BME280;6302;42.624;23.334;2023-02-17T12:10:19;94072.47;;;13.44;35.29
12475;BME280;6302;42.624;23.334;2023-02-17T12:12:57;94067.19;;;13.37;35.82
12475;BME280;6302;42.624;23.334;2023-02-17T12:15:38;94061.09;;;13.37;36.04
12475;BME280;6302;42.624;23.334;2023-02-17T12:18:18;94064.06;;;13.46;36.48
12475;BME280;6302;42.624;23.334;2023-02-17T12:20:52;94048.94;;;13.36;35.97
12475;BME280;6302;42.624;23.334;2023-02-17T12:23:41;94058.09;;;13.31;36.65
12475;BME280;6302;42.624;23.334;2023-02-17T12:26:23;94046.31;;;13.32;36.21
12475;BME280;6302;42.624;23.334;2023-02-17T12:29:01;94035.63;;;13.36;36.21
12475;BME280;6302;42.624;23.334;2023-02-17T12:34:32;94032.19;;;13.39;35.92
12475;BME280;6302;42.624;23.334;2023-02-17T12:37:00;94021.47;;;13.46;36.44
12475;BME280;6302;42.624;23.334;2023-02-17T12:39:30;94044.72;;;13.45;36.75
12475;BME280;6302;42.624;23.334;2023-02-17T12:42:03;94022.72;;;13.31;36.40
12475;BME280;6302;42.624;23.334;2023-02-17T12:44:36;94021.56;;;13.35;36.82
12475;BME280;6302;42.624;23.334;2023-02-17T12:47:09;94022.03;;;13.23;36.79
12475;BME280;6302;42.624;23.334;2023-02-17T12:49:42;94023.53;;;13.28;36.92
12475;BME280;6302;42.624;23.334;2023-02-17T12:52:14;94013.97;;;13.34;36.40
12475;BME280;6302;42.624;23.334;2023-02-17T12:54:49;94013.94;;;13.37;36.33
12475;BME280;6302;42.624;23.334;2023-02-17T12:57:21;94010.88;;;13.42;36.84
12475;BME280;6302;42.624;23.334;2023-02-17T12:59:51;94010.09;;;13.42;36.63
12475;BME280;6302;42.624;23.334;2023-02-17T13:02:20;94006.38;;;13.32;36.73
12475;BME280;6302;42.624;23.334;2023-02-17T13:04:50;94007.88;;;13.33;36.29
12475;BME280;6302;42.624;23.334;2023-02-17T13:07:28;93998.31;;;13.43;36.65
12475;BME280;6302;42.624;23.334;2023-02-17T13:09:59;94013.47;;;13.49;35.91
12475;BME280;6302;42.624;23.334;2023-02-17T13:12:37;94001.34;;;13.45;36.39
12475;BME280;6302;42.624;23.334;2023-02-17T13:15:25;94011.94;;;13.48;36.11
12475;BME280;6302;42.624;23.334;2023-02-17T13:17:55;93999.38;;;13.52;36.61
12475;BME280;6302;42.624;23.334;2023-02-17T13:23:13;94007.59;;;13.68;36.27
12475;BME280;6302;42.624;23.334;2023-02-17T13:26:04;94015.31;;;13.59;36.21
12475;BME280;6302;42.624;23.334;2023-02-17T13:28:36;94010.03;;;13.52;35.90
12475;BME280;6302;42.624;23.334;2023-02-17T13:31:25;94007.31;;;13.56;35.10
12475;BME280;6302;42.624;23.334;2023-02-17T13:33:53;94004.28;;;13.57;35.38
12475;BME280;6302;42.624;23.334;2023-02-17T13:36:33;94000.88;;;13.57;35.16
12475;BME280;6302;42.624;23.334;2023-02-17T13:39:02;93998.56;;;13.55;35.39